Airfield :
LOGIN :

Register | Disclaimer

   EN    FR    IT 

 










Legend :    VFR   Marginal VFR   IFR   Intensive IFR   Very Intensive IFR
Visi :
Ceiling :
>= 8 km
>= 3000ft
5 to 8 km
1000 to 3000 ft
1500m to 5 km
500 to 1000 ft
800 to 1500m
200 to 500 ft
< 800m
< 200 ft
Symbols :   Thunderstorms  Fog  Heavy snow  Heavy precipitations  Wind > 20 kt
SIGMETs :     Misc.  Thunderstorms  Icing  Turbulence  Mountain Waves  Volcanic Ashes







- Airport Elevation : 1106 ft
- Download approach charts


LFSO - Nancy / Ochey

CURRENT METAR :
  • 261130Z AUTO 26004KT 190V300 9999 FEW049 19/08 Q1017

EXPIRED METARs :
  • 261100Z AUTO VRB05KT 9999 BKN046 BKN052 20/07 Q1017
  • 261030Z AUTO 30004KT 250V350 9999 FEW043 SCT190 18/08 Q1018
  • 261000Z AUTO VRB06KT 9999 SCT040 19/08 Q1018
  • 260930Z AUTO VRB03KT 9999 FEW038 SCT250 18/10 Q1018
  • 260900Z AUTO 30004KT 230V030 9999 FEW031 SCT045 18/09 Q1018 NOSIG

TAF TAF LFSO
Valid from the 26 at 09:00 until the 27 at 09:00 UTC


260800Z 2609/2709 26003KT CAVOK
BECMG 2704/2706 OVC010
TEMPO 2706/2709 4000 -RA OVC007
No reported NOTAMs for that airfield.



MET'MAP, your aeronautical weather chart ! - Copyright ORBIFLY December 2007 - Disclaimer

ORBIFLY MET'MAP TEAM :

Programming & Development : Alexandra Zaïnal
Concept & Development : Baudouin d'Aumeries
Co-Development & Prog : Marc-Olivier Méhu
Technical & hardware support : Manuel Goepfert

Contact : metmap@orbifly.com




SOURCES & CREDITS :

   NOAA